createdAt,value
2018-12-20T15:14:04.732Z,97.20
2018-12-20T15:16:33.766Z,96.50
2018-12-20T15:19:48.926Z,96.80
2018-12-20T15:22:17.426Z,97.00
2018-12-20T15:24:45.843Z,97.20
2018-12-20T15:27:14.340Z,97.50
2018-12-20T15:29:42.935Z,97.70
2018-12-20T15:32:11.984Z,98.10
2018-12-20T15:34:53.172Z,98.00
2018-12-20T15:37:21.738Z,98.10
2018-12-20T15:39:50.158Z,98.10
2018-12-20T15:42:18.762Z,98.30
2018-12-20T15:44:47.183Z,98.20
2018-12-20T15:47:15.617Z,98.20
2018-12-20T15:49:51.981Z,98.10
2018-12-20T15:52:20.804Z,98.70
2018-12-20T15:54:49.280Z,98.60
2018-12-20T15:57:17.755Z,98.70
2018-12-20T15:59:46.211Z,98.60
2018-12-20T16:02:14.882Z,98.20
2018-12-20T16:04:57.437Z,98.10
2018-12-20T16:07:25.885Z,98.10
2018-12-20T16:09:54.335Z,98.00
2018-12-20T16:12:22.758Z,97.90
2018-12-20T16:14:51.190Z,97.80
2018-12-20T16:17:19.993Z,97.80
2018-12-20T16:19:48.467Z,97.60
2018-12-20T16:22:16.882Z,97.60
2018-12-20T16:24:45.328Z,97.80
2018-12-20T16:27:13.879Z,97.50
2018-12-20T16:29:42.322Z,97.20
2018-12-20T16:32:10.854Z,97.30
2018-12-20T16:34:39.273Z,97.50
2018-12-20T16:37:11.351Z,97.50
2018-12-20T16:39:39.785Z,97.60
2018-12-20T16:42:08.202Z,97.40
2018-12-20T16:44:36.760Z,97.40
2018-12-20T16:47:05.275Z,97.50
2018-12-20T16:49:33.694Z,97.50
2018-12-20T16:52:02.114Z,97.20
2018-12-20T16:54:30.654Z,97.20
2018-12-20T16:56:59.148Z,97.30
2018-12-20T16:59:27.569Z,97.30
2018-12-20T17:01:56.202Z,97.50
2018-12-20T17:04:24.963Z,97.50
2018-12-20T17:06:53.367Z,97.40
2018-12-20T17:09:21.818Z,97.50
2018-12-20T17:11:50.259Z,97.50
2018-12-20T17:14:18.748Z,97.80
2018-12-20T17:16:47.188Z,97.90
2018-12-20T17:19:22.045Z,98.70
2018-12-20T17:21:46.047Z,98.90
2018-12-20T17:24:31.093Z,99.10
2018-12-20T17:26:59.533Z,98.90
2018-12-20T17:29:27.953Z,98.90
2018-12-20T17:31:56.409Z,99.10
2018-12-20T17:34:24.930Z,99.10
2018-12-20T17:36:53.350Z,99.30
2018-12-20T17:39:21.743Z,99.20
2018-12-20T17:41:50.373Z,99.10
2018-12-20T17:44:18.795Z,98.90
2018-12-20T17:46:47.212Z,98.90
2018-12-20T17:49:15.628Z,98.70
2018-12-20T17:51:44.034Z,98.60
2018-12-20T17:54:12.587Z,98.70
2018-12-20T17:56:41.631Z,98.40
2018-12-20T17:59:10.260Z,98.40
2018-12-20T18:01:40.244Z,98.30
2018-12-20T18:04:08.958Z,98.30
2018-12-20T18:06:37.508Z,98.10
2018-12-20T18:09:08.435Z,97.90
2018-12-20T18:11:36.870Z,98.10
2018-12-20T18:14:05.576Z,97.90
2018-12-20T18:16:34.173Z,98.00
2018-12-20T18:19:02.604Z,98.10
2018-12-20T18:21:31.032Z,97.70
2018-12-20T18:23:59.514Z,97.80
2018-12-20T18:26:27.979Z,97.30
2018-12-20T18:28:56.408Z,97.40
2018-12-20T18:31:24.839Z,97.70
2018-12-20T18:33:53.399Z,97.80
2018-12-20T18:36:21.940Z,97.90
2018-12-20T18:38:50.510Z,98.00
2018-12-20T18:41:19.090Z,98.10
2018-12-20T18:43:47.507Z,98.10
2018-12-20T18:46:16.042Z,98.20
2018-12-20T18:48:44.508Z,98.50
2018-12-20T18:51:13.022Z,98.30
2018-12-20T18:53:41.505Z,98.30
2018-12-20T18:56:09.940Z,98.00
2018-12-20T18:58:38.447Z,98.10
2018-12-20T19:01:06.893Z,98.40
2018-12-20T19:03:35.293Z,98.70
2018-12-20T19:06:03.856Z,98.80
2018-12-20T19:08:32.517Z,99.00
2018-12-20T19:11:00.937Z,99.40
2018-12-20T19:13:29.406Z,99.80
2018-12-20T19:15:57.943Z,99.90
2018-12-20T19:18:26.481Z,99.80
2018-12-20T19:20:55.115Z,99.90
2018-12-20T19:23:23.939Z,99.90
2018-12-20T19:25:52.606Z,99.90
2018-12-20T19:28:21.207Z,99.90
2018-12-20T19:30:49.828Z,99.90
2018-12-20T19:33:18.238Z,99.90
2018-12-20T19:35:46.737Z,99.90
2018-12-20T19:38:20.395Z,99.90
2018-12-20T19:40:45.704Z,99.90
2018-12-20T19:43:14.274Z,99.90
2018-12-20T19:45:46.069Z,99.90
2018-12-20T19:48:13.308Z,99.90
2018-12-20T19:50:41.778Z,99.90
2018-12-20T19:53:10.252Z,99.90
2018-12-20T19:55:39.734Z,99.90
2018-12-20T19:58:08.178Z,99.90
2018-12-20T20:00:36.591Z,99.90
2018-12-20T20:03:05.144Z,99.90
2018-12-20T20:05:33.578Z,99.90
2018-12-20T20:08:02.156Z,99.90
2018-12-20T20:10:30.637Z,99.90
2018-12-20T20:12:59.069Z,99.90
2018-12-20T20:15:27.630Z,99.90
2018-12-20T20:17:56.070Z,99.90
2018-12-20T20:20:24.491Z,99.90
2018-12-20T20:22:53.347Z,99.90
2018-12-20T20:25:21.939Z,99.90
2018-12-20T20:27:50.517Z,99.90
2018-12-20T20:30:19.226Z,99.90
2018-12-20T20:32:47.653Z,99.90
2018-12-20T20:35:16.119Z,99.90
2018-12-20T20:37:44.708Z,99.90
2018-12-20T20:40:13.126Z,99.90
2018-12-20T20:42:41.555Z,99.90
2018-12-20T20:45:10.085Z,99.90
2018-12-20T20:47:38.503Z,99.80
2018-12-20T20:50:08.361Z,99.90
2018-12-20T20:52:36.792Z,99.90
2018-12-20T20:55:07.104Z,99.80
2018-12-20T20:57:35.642Z,99.80
2018-12-20T21:00:05.895Z,99.70
2018-12-20T21:02:34.357Z,99.20
2018-12-20T21:05:23.972Z,98.90
2018-12-20T21:07:52.516Z,98.60
2018-12-20T21:10:20.954Z,99.20
2018-12-20T21:12:49.491Z,98.90
2018-12-20T21:15:17.922Z,99.00
2018-12-20T21:17:46.339Z,98.50
2018-12-20T21:20:35.462Z,98.70
2018-12-20T21:23:04.014Z,98.60
2018-12-20T21:25:32.456Z,98.40
2018-12-20T21:28:00.884Z,97.80
2018-12-20T21:30:29.364Z,97.70
2018-12-20T21:32:57.993Z,97.70
2018-12-20T21:35:26.430Z,97.50
2018-12-20T21:37:55.222Z,97.30
2018-12-20T21:40:23.727Z,97.50
2018-12-20T21:42:52.148Z,97.40
2018-12-20T21:45:22.898Z,97.70
2018-12-20T21:47:51.439Z,97.10
2018-12-20T21:50:19.975Z,97.10
2018-12-20T21:53:09.401Z,96.40
2018-12-20T21:55:37.886Z,97.00
2018-12-20T21:58:06.319Z,97.00
2018-12-20T22:00:34.821Z,97.10
2018-12-20T22:03:03.308Z,97.00
2018-12-20T22:05:31.711Z,97.20
2018-12-20T22:08:11.079Z,97.00
2018-12-20T22:10:39.635Z,97.40
2018-12-20T22:13:08.067Z,96.90
2018-12-20T22:15:36.479Z,97.20
2018-12-20T22:18:04.896Z,96.80
2018-12-20T22:20:33.304Z,97.10
2018-12-20T22:23:22.681Z,97.10
2018-12-20T22:26:06.153Z,96.00
2018-12-20T22:28:34.621Z,96.30
2018-12-20T22:31:03.291Z,96.40
2018-12-20T22:33:31.858Z,96.60
2018-12-20T22:36:21.235Z,96.10
2018-12-20T22:38:49.749Z,96.30
2018-12-20T22:41:18.185Z,96.40
2018-12-20T22:43:47.032Z,95.80
2018-12-20T22:46:15.457Z,96.20
2018-12-20T22:48:43.990Z,96.10
2018-12-20T22:51:14.019Z,96.00
2018-12-20T22:53:42.456Z,96.30
2018-12-20T22:56:10.876Z,96.40
2018-12-20T22:58:39.444Z,96.30
2018-12-20T23:01:07.875Z,95.70
2018-12-20T23:03:36.274Z,95.90
2018-12-20T23:06:04.949Z,96.10
2018-12-20T23:08:33.357Z,95.90
2018-12-20T23:11:01.756Z,96.30
2018-12-20T23:13:30.239Z,96.50
2018-12-20T23:15:58.858Z,96.30
2018-12-20T23:18:27.264Z,96.40
2018-12-20T23:21:13.037Z,96.50
2018-12-20T23:23:41.523Z,96.50
2018-12-20T23:26:10.017Z,96.50
2018-12-20T23:28:38.587Z,96.10
2018-12-20T23:31:07.805Z,96.20
2018-12-20T23:33:36.202Z,96.30
2018-12-20T23:36:05.247Z,96.60
2018-12-20T23:38:37.037Z,96.90
2018-12-20T23:41:05.450Z,96.70
2018-12-20T23:43:33.978Z,96.70
2018-12-20T23:46:02.402Z,96.70
2018-12-20T23:48:30.916Z,96.70
2018-12-20T23:50:59.305Z,96.10
2018-12-20T23:53:35.027Z,96.60
2018-12-20T23:56:03.446Z,96.50
2018-12-20T23:58:31.907Z,96.00
